createdAt,value
2022-11-27T00:02:30.078Z,0.52
2022-11-27T00:04:57.329Z,2.05
2022-11-27T00:07:24.739Z,0.25
2022-11-27T00:10:04.496Z,0.93
2022-11-27T00:12:31.746Z,2.05
2022-11-27T00:14:59.270Z,0.20
2022-11-27T00:20:22.744Z,0.32
2022-11-27T00:27:24.275Z,0.65
2022-11-27T00:30:17.629Z,0.88
2022-11-27T00:33:48.861Z,0.77
2022-11-27T00:40:37.092Z,0.00
2022-11-27T00:43:04.604Z,3.08
2022-11-27T00:53:30.760Z,0.60
2022-11-27T00:55:57.894Z,3.85
2022-11-27T00:58:32.455Z,1.88
2022-11-27T01:01:02.054Z,0.75
2022-11-27T01:03:34.000Z,2.00
2022-11-27T01:14:20.308Z,1.05
2022-11-27T01:17:43.436Z,1.55
2022-11-27T01:23:17.793Z,2.85
2022-11-27T01:26:15.241Z,2.08
2022-11-27T01:32:20.985Z,0.40
2022-11-27T01:34:50.555Z,1.48
2022-11-27T01:37:17.697Z,0.10
2022-11-27T01:39:44.789Z,1.17
2022-11-27T01:42:44.158Z,0.50
2022-11-27T01:45:14.769Z,1.88
2022-11-27T01:52:04.240Z,1.45
2022-11-27T02:03:08.252Z,2.83
2022-11-27T02:05:51.086Z,3.40
2022-11-27T02:08:23.740Z,1.85
2022-11-27T02:10:57.282Z,0.32
2022-11-27T02:14:05.992Z,0.00
2022-11-27T02:18:16.093Z,0.40
2022-11-27T02:21:00.561Z,1.00
2022-11-27T02:31:36.309Z,5.25
2022-11-27T02:34:27.408Z,1.05
2022-11-27T02:37:04.787Z,1.55
2022-11-27T02:39:51.702Z,0.08
2022-11-27T02:45:22.527Z,1.33
2022-11-27T02:47:50.715Z,0.20
2022-11-27T02:50:22.008Z,3.13
2022-11-27T02:52:51.575Z,0.47
2022-11-27T02:55:23.100Z,1.75
2022-11-27T02:57:51.728Z,0.10
2022-11-27T03:00:19.307Z,1.95
2022-11-27T03:02:50.005Z,0.88
2022-11-27T03:05:20.414Z,0.73
2022-11-27T03:07:55.327Z,0.05
2022-11-27T03:10:37.021Z,1.58
2022-11-27T03:13:04.807Z,1.48
2022-11-27T03:15:40.380Z,1.27
2022-11-27T03:18:13.008Z,3.10
2022-11-27T03:20:41.391Z,1.75
2022-11-27T03:23:09.619Z,1.20
2022-11-27T03:25:38.293Z,0.30
2022-11-27T03:28:06.267Z,1.05
2022-11-27T03:30:33.552Z,0.63
2022-11-27T03:33:01.315Z,0.40
2022-11-27T03:35:31.331Z,1.85
2022-11-27T03:37:58.478Z,2.30
2022-11-27T03:40:29.742Z,15.63
2022-11-27T03:43:13.289Z,0.68
2022-11-27T03:45:53.635Z,1.75
2022-11-27T03:48:24.606Z,0.75
2022-11-27T03:51:08.902Z,1.55
2022-11-27T03:53:56.481Z,0.38
2022-11-27T03:56:33.751Z,1.35
2022-11-27T03:59:15.109Z,1.48
2022-11-27T04:01:42.630Z,1.98
2022-11-27T04:04:09.756Z,1.55
2022-11-27T04:06:36.802Z,2.22
2022-11-27T04:09:04.212Z,0.08
2022-11-27T04:11:31.633Z,0.52
2022-11-27T04:13:59.747Z,1.92
2022-11-27T04:16:27.258Z,2.40
2022-11-27T04:18:54.683Z,3.25
2022-11-27T04:21:21.641Z,0.98
2022-11-27T04:23:48.600Z,0.52
2022-11-27T04:26:15.535Z,0.47
2022-11-27T04:28:42.534Z,0.00
2022-11-27T04:31:10.303Z,0.08
2022-11-27T04:33:37.449Z,0.15
2022-11-27T04:36:04.817Z,0.10
2022-11-27T04:38:31.910Z,0.93
2022-11-27T04:40:58.942Z,0.32
2022-11-27T04:43:25.850Z,0.00
2022-11-27T04:45:52.959Z,0.00
2022-11-27T04:48:20.113Z,1.95
2022-11-27T04:50:47.128Z,0.70
2022-11-27T04:53:14.069Z,0.00
2022-11-27T04:55:42.230Z,0.00
2022-11-27T04:58:09.281Z,2.58
2022-11-27T05:00:36.457Z,0.08
2022-11-27T05:03:03.452Z,0.30
2022-11-27T05:05:30.782Z,0.15
2022-11-27T05:07:58.237Z,1.85
2022-11-27T05:10:25.333Z,1.02
2022-11-27T05:12:53.105Z,0.35
2022-11-27T05:15:20.116Z,0.20
2022-11-27T05:17:47.228Z,0.35
2022-11-27T05:20:14.386Z,0.68
2022-11-27T05:22:41.489Z,0.55
2022-11-27T05:25:09.067Z,1.95
2022-11-27T05:27:36.321Z,0.00
2022-11-27T05:30:04.411Z,1.35
2022-11-27T05:32:31.499Z,0.00
2022-11-27T05:34:58.864Z,1.55
2022-11-27T05:37:26.018Z,0.22
2022-11-27T05:39:53.475Z,4.53
2022-11-27T05:42:20.803Z,0.38
2022-11-27T05:44:47.823Z,0.45
2022-11-27T05:47:15.020Z,1.52
2022-11-27T05:49:42.102Z,0.65
2022-11-27T05:52:09.201Z,0.00
2022-11-27T05:54:36.482Z,0.22
2022-11-27T05:57:03.609Z,0.47
2022-11-27T05:59:30.729Z,0.08
2022-11-27T06:01:57.894Z,0.00
2022-11-27T06:04:26.258Z,0.38
2022-11-27T06:06:53.392Z,0.10
2022-11-27T06:09:20.475Z,0.00
2022-11-27T06:11:47.483Z,0.00
2022-11-27T06:14:14.674Z,0.28
2022-11-27T06:16:42.621Z,0.00
2022-11-27T06:19:09.641Z,0.00
2022-11-27T06:21:36.771Z,1.38
2022-11-27T06:24:04.136Z,0.10
2022-11-27T06:26:32.335Z,0.00
2022-11-27T06:28:59.897Z,0.35
2022-11-27T06:31:28.948Z,0.00
2022-11-27T06:33:56.242Z,0.00
2022-11-27T06:36:24.727Z,0.75
2022-11-27T06:38:51.889Z,0.00
2022-11-27T06:41:21.015Z,1.55
2022-11-27T06:43:48.239Z,0.15
2022-11-27T06:46:18.134Z,0.00
2022-11-27T06:48:46.171Z,0.15
2022-11-27T06:51:14.781Z,0.00
2022-11-27T06:53:42.165Z,0.00
2022-11-27T06:56:13.954Z,0.10
2022-11-27T06:58:42.182Z,0.00
2022-11-27T07:01:16.484Z,2.53
2022-11-27T07:03:43.924Z,0.00
2022-11-27T07:06:18.075Z,0.00
2022-11-27T07:08:45.103Z,0.10
2022-11-27T07:11:16.701Z,0.10
2022-11-27T07:13:43.865Z,0.00
2022-11-27T07:16:11.163Z,0.40
2022-11-27T07:18:45.733Z,0.00
2022-11-27T07:21:12.890Z,0.00
2022-11-27T07:23:40.017Z,0.00
2022-11-27T07:26:11.214Z,0.00
2022-11-27T07:28:38.279Z,0.38
2022-11-27T07:31:05.452Z,0.55
2022-11-27T07:33:33.366Z,0.05
2022-11-27T07:36:02.019Z,0.00
2022-11-27T07:38:29.233Z,0.65
2022-11-27T07:41:00.243Z,1.10
2022-11-27T07:43:27.888Z,1.48
2022-11-27T07:45:55.125Z,0.00
2022-11-27T07:48:22.348Z,1.35
2022-11-27T07:50:53.106Z,0.00
2022-11-27T07:53:21.468Z,0.00
2022-11-27T07:55:48.522Z,2.28
2022-11-27T07:58:15.702Z,0.00
2022-11-27T08:00:42.830Z,2.00
2022-11-27T08:03:10.581Z,0.32
2022-11-27T08:05:37.838Z,0.00
2022-11-27T08:08:05.248Z,0.00
2022-11-27T08:10:35.287Z,0.00
2022-11-27T08:13:02.294Z,1.45
2022-11-27T08:15:30.260Z,0.43
2022-11-27T08:17:57.882Z,0.68
2022-11-27T08:20:25.142Z,0.00
2022-11-27T08:22:52.282Z,0.25
2022-11-27T08:25:19.509Z,2.08
2022-11-27T08:27:48.327Z,0.15
2022-11-27T08:30:15.433Z,0.98
2022-11-27T08:32:43.175Z,1.13
2022-11-27T08:35:10.862Z,0.40
2022-11-27T08:37:37.990Z,0.00
2022-11-27T08:40:05.866Z,0.00
2022-11-27T08:42:32.842Z,0.47
2022-11-27T08:45:00.097Z,0.00
2022-11-27T08:47:28.579Z,0.00
2022-11-27T08:49:55.682Z,0.30
2022-11-27T08:52:22.926Z,0.00
2022-11-27T08:54:53.193Z,0.20
2022-11-27T08:57:24.343Z,0.00
2022-11-27T08:59:51.298Z,0.57
2022-11-27T09:02:18.406Z,0.10
2022-11-27T09:04:45.458Z,0.52
2022-11-27T09:07:14.617Z,0.60
2022-11-27T09:09:41.851Z,0.00
2022-11-27T09:12:08.955Z,0.10
2022-11-27T09:14:36.046Z,0.95
2022-11-27T09:17:03.106Z,0.47
2022-11-27T09:19:30.321Z,1.02
2022-11-27T09:21:57.652Z,0.00
2022-11-27T09:24:25.231Z,0.50
2022-11-27T09:26:52.333Z,0.15
2022-11-27T09:29:19.604Z,1.25
2022-11-27T09:31:46.634Z,0.43
2022-11-27T09:34:14.542Z,1.58
2022-11-27T09:36:41.522Z,1.65
2022-11-27T09:39:08.712Z,3.00
2022-11-27T09:41:46.446Z,2.17
2022-11-27T09:44:28.853Z,1.55
2022-11-27T09:46:57.167Z,0.82
2022-11-27T09:49:50.758Z,2.15
2022-11-27T09:55:12.849Z,0.20
2022-11-27T09:57:42.065Z,0.50
2022-11-27T10:00:17.980Z,0.10
2022-11-27T10:02:45.424Z,0.63
2022-11-27T10:05:43.904Z,0.03
2022-11-27T10:08:27.560Z,2.10
2022-11-27T10:10:57.453Z,0.10
2022-11-27T10:13:59.597Z,0.68
2022-11-27T10:16:44.274Z,0.57
2022-11-27T10:19:26.285Z,0.75
2022-11-27T10:22:20.941Z,1.25
2022-11-27T10:25:02.761Z,0.80
2022-11-27T10:27:32.433Z,4.18
2022-11-27T10:29:59.457Z,0.10
2022-11-27T10:35:19.370Z,0.50
2022-11-27T10:38:06.289Z,0.10
2022-11-27T10:40:49.362Z,1.55
2022-11-27T10:43:25.042Z,5.10
2022-11-27T10:46:11.595Z,0.10
2022-11-27T10:48:38.658Z,0.35
2022-11-27T10:51:21.439Z,3.13
2022-11-27T10:53:51.091Z,0.30
2022-11-27T10:56:18.007Z,0.60
2022-11-27T10:58:58.897Z,0.35
2022-11-27T11:01:27.401Z,0.50
2022-11-27T11:04:35.913Z,1.65
2022-11-27T11:06:57.777Z,0.40
2022-11-27T11:09:36.896Z,0.13
2022-11-27T11:12:21.176Z,1.95
2022-11-27T11:14:59.727Z,0.20
2022-11-27T11:17:34.646Z,1.60
2022-11-27T11:22:49.443Z,1.67
2022-11-27T11:25:17.910Z,2.65
2022-11-27T11:27:44.997Z,2.67
2022-11-27T11:30:21.423Z,2.70
2022-11-27T11:32:49.394Z,0.55
2022-11-27T11:35:35.663Z,4.82
2022-11-27T11:38:07.683Z,0.47
2022-11-27T11:40:35.758Z,5.20
2022-11-27T11:43:21.526Z,1.45
2022-11-27T11:45:49.041Z,1.25
2022-11-27T11:48:37.228Z,1.45
2022-11-27T11:51:17.838Z,1.70
2022-11-27T11:53:45.562Z,4.25
2022-11-27T11:56:35.239Z,1.75
2022-11-27T11:59:03.165Z,0.70
2022-11-27T12:02:06.250Z,1.17
2022-11-27T12:04:42.637Z,6.82
2022-11-27T12:07:18.780Z,2.85
2022-11-27T12:09:57.799Z,8.10
2022-11-27T12:12:45.072Z,0.13
2022-11-27T12:15:15.004Z,0.88
2022-11-27T12:18:01.839Z,1.30
2022-11-27T12:23:22.052Z,2.88
2022-11-27T12:26:06.488Z,5.78
2022-11-27T12:29:01.258Z,1.77
2022-11-27T12:31:28.379Z,2.50
2022-11-27T12:34:12.584Z,9.52
2022-11-27T12:37:31.893Z,2.47
2022-11-27T12:40:26.596Z,3.65
2022-11-27T12:43:07.895Z,2.85
2022-11-27T12:46:06.024Z,3.30
2022-11-27T12:48:46.871Z,2.63
2022-11-27T12:51:24.583Z,3.30
2022-11-27T12:54:06.646Z,1.65
2022-11-27T12:56:43.188Z,4.55
2022-11-27T12:59:26.093Z,4.55
2022-11-27T13:02:19.560Z,1.58
2022-11-27T13:05:02.410Z,6.82
2022-11-27T13:08:04.666Z,9.30
2022-11-27T13:10:52.521Z,9.05
2022-11-27T13:13:34.087Z,4.32
2022-11-27T13:16:05.477Z,2.67
2022-11-27T13:18:44.872Z,7.10
2022-11-27T13:21:17.585Z,4.80
2022-11-27T13:23:44.753Z,9.10
2022-11-27T13:26:26.477Z,3.03
2022-11-27T13:28:56.059Z,4.15
2022-11-27T13:31:28.542Z,3.00
2022-11-27T13:34:01.241Z,5.55
2022-11-27T13:36:48.339Z,7.30
2022-11-27T13:39:44.829Z,8.40
2022-11-27T13:42:11.798Z,2.25
2022-11-27T13:44:42.016Z,9.68
2022-11-27T13:47:16.513Z,3.90
2022-11-27T13:49:43.655Z,6.85
2022-11-27T13:52:20.585Z,8.15
2022-11-27T13:54:55.033Z,14.20
2022-11-27T13:57:22.078Z,10.05
2022-11-27T14:00:16.321Z,6.75
2022-11-27T14:02:47.651Z,10.55
2022-11-27T14:05:16.933Z,6.05
2022-11-27T14:07:47.964Z,7.45
2022-11-27T14:10:33.196Z,9.38
2022-11-27T14:13:04.776Z,10.38
2022-11-27T14:15:33.384Z,4.40
2022-11-27T14:18:13.850Z,10.35
2022-11-27T14:20:51.896Z,5.55
2022-11-27T14:23:28.395Z,9.60
2022-11-27T14:26:20.590Z,6.80
2022-11-27T14:28:55.133Z,7.03
2022-11-27T14:31:27.279Z,4.38
2022-11-27T14:34:14.347Z,5.13
2022-11-27T14:36:41.266Z,8.77
2022-11-27T14:39:19.258Z,5.32
2022-11-27T14:41:56.483Z,6.18
2022-11-27T14:44:23.456Z,13.85
2022-11-27T14:46:50.414Z,7.72
2022-11-27T14:49:21.938Z,8.60
2022-11-27T14:51:49.066Z,15.20
2022-11-27T14:54:29.624Z,9.65
2022-11-27T14:56:56.783Z,11.98
2022-11-27T14:59:24.625Z,10.20
2022-11-27T15:02:00.610Z,13.32
2022-11-27T15:04:34.923Z,6.40
2022-11-27T15:07:04.613Z,7.05
2022-11-27T15:09:43.279Z,16.25
2022-11-27T15:12:23.894Z,9.50
2022-11-27T15:15:15.820Z,6.82
2022-11-27T15:17:44.334Z,10.10
2022-11-27T15:20:14.690Z,8.13
2022-11-27T15:22:51.785Z,9.68
2022-11-27T15:25:46.392Z,5.55
2022-11-27T15:28:51.863Z,10.88
2022-11-27T15:31:25.946Z,10.75
2022-11-27T15:33:57.992Z,9.18
2022-11-27T15:36:25.528Z,12.98
2022-11-27T15:38:52.769Z,8.20
2022-11-27T15:41:26.112Z,8.55
2022-11-27T15:43:53.397Z,11.75
2022-11-27T15:46:30.055Z,9.30
2022-11-27T15:48:57.113Z,11.02
2022-11-27T15:51:24.206Z,5.53
2022-11-27T15:53:51.137Z,7.93
2022-11-27T15:56:18.142Z,1.95
2022-11-27T15:58:46.338Z,14.40
2022-11-27T16:01:13.346Z,15.48
2022-11-27T16:03:40.577Z,7.60
2022-11-27T16:06:08.244Z,6.70
2022-11-27T16:08:35.620Z,6.25
2022-11-27T16:11:04.695Z,10.38
2022-11-27T16:13:31.743Z,8.23
2022-11-27T16:16:03.398Z,10.55
2022-11-27T16:18:31.138Z,11.07
2022-11-27T16:21:04.942Z,20.08
2022-11-27T16:23:35.497Z,10.95
2022-11-27T16:26:02.554Z,13.30
2022-11-27T16:28:29.882Z,8.20
2022-11-27T16:30:58.628Z,9.73
2022-11-27T16:33:26.370Z,7.10
2022-11-27T16:35:53.763Z,12.48
2022-11-27T16:38:21.046Z,6.40
2022-11-27T16:40:49.282Z,11.55
2022-11-27T16:43:16.357Z,7.72
2022-11-27T16:45:44.172Z,10.02
2022-11-27T17:04:20.081Z,14.15
2022-11-27T17:06:48.219Z,8.18
2022-11-27T17:09:15.332Z,9.20
2022-11-27T17:11:44.480Z,13.40
2022-11-27T17:14:11.623Z,26.13
2022-11-27T17:16:41.552Z,12.43
2022-11-27T17:19:14.927Z,12.73
2022-11-27T17:21:42.903Z,12.73
2022-11-27T17:24:16.255Z,11.60
2022-11-27T17:26:45.329Z,8.20
2022-11-27T17:29:13.360Z,6.80
2022-11-27T17:31:40.820Z,9.68
2022-11-27T17:34:08.069Z,7.68
2022-11-27T17:36:37.356Z,10.88
2022-11-27T17:39:05.953Z,12.05
2022-11-27T17:41:33.229Z,11.15
2022-11-27T17:44:00.439Z,12.52
2022-11-27T17:46:28.491Z,8.00
2022-11-27T17:48:57.922Z,12.55
2022-11-27T17:51:25.322Z,19.73
2022-11-27T17:53:52.654Z,11.27
2022-11-27T17:56:20.716Z,7.57
2022-11-27T17:58:49.523Z,14.57
2022-11-27T18:01:18.969Z,4.57
2022-11-27T18:03:47.480Z,11.13
2022-11-27T18:06:16.009Z,12.95
2022-11-27T18:08:43.910Z,14.25
2022-11-27T18:11:16.006Z,10.35
2022-11-27T18:13:43.491Z,8.82
2022-11-27T18:16:13.465Z,8.80
2022-11-27T18:18:41.045Z,15.68
2022-11-27T18:21:12.884Z,10.25
2022-11-27T18:24:14.543Z,11.70
2022-11-27T18:29:17.861Z,16.27
2022-11-27T18:31:45.979Z,5.00
2022-11-27T18:34:13.819Z,6.25
2022-11-27T18:36:41.017Z,6.28
2022-11-27T18:39:08.379Z,7.03
2022-11-27T18:41:36.605Z,6.85
2022-11-27T18:44:04.608Z,7.75
2022-11-27T18:46:31.901Z,11.45
2022-11-27T18:48:59.553Z,12.27
2022-11-27T18:51:27.890Z,5.25
2022-11-27T18:53:56.507Z,7.43
2022-11-27T18:57:09.336Z,5.85
2022-11-27T18:59:49.913Z,13.93
2022-11-27T19:02:18.824Z,12.20
2022-11-27T19:04:46.685Z,7.90
2022-11-27T19:07:13.931Z,13.70
2022-11-27T19:09:41.328Z,11.32
2022-11-27T19:12:08.496Z,19.40
2022-11-27T19:14:54.458Z,10.35
2022-11-27T19:17:45.646Z,9.88
2022-11-27T19:20:15.624Z,9.30
2022-11-27T19:22:42.914Z,8.73
2022-11-27T19:25:10.894Z,8.25
2022-11-27T19:27:42.862Z,8.38
2022-11-27T19:30:13.807Z,7.50
2022-11-27T19:32:41.447Z,7.80
2022-11-27T19:35:10.370Z,12.18
2022-11-27T19:37:38.871Z,10.65
2022-11-27T19:40:06.930Z,12.90
2022-11-27T19:42:33.942Z,9.75
2022-11-27T19:45:01.635Z,10.07
2022-11-27T19:47:28.647Z,7.93
2022-11-27T19:49:55.883Z,9.60
2022-11-27T19:52:22.961Z,8.07
2022-11-27T19:54:50.022Z,11.05
2022-11-27T19:57:17.751Z,9.00
2022-11-27T20:00:01.865Z,8.75
2022-11-27T20:02:30.552Z,11.85
2022-11-27T20:04:58.562Z,9.13
2022-11-27T20:07:28.742Z,12.48
2022-11-27T20:09:56.218Z,10.23
2022-11-27T20:12:23.137Z,11.25
2022-11-27T20:14:50.642Z,7.57
2022-11-27T20:17:20.360Z,8.38
2022-11-27T20:19:55.648Z,16.08
2022-11-27T20:22:23.215Z,8.30
2022-11-27T20:25:11.623Z,9.27
2022-11-27T20:27:38.239Z,15.15
2022-11-27T20:30:06.574Z,12.25
2022-11-27T20:32:33.887Z,11.90
2022-11-27T20:35:00.889Z,14.50
2022-11-27T20:37:28.979Z,15.13
2022-11-27T20:39:55.966Z,12.43
2022-11-27T20:42:23.917Z,7.72
2022-11-27T20:44:50.982Z,12.13
2022-11-27T20:47:18.110Z,11.15
2022-11-27T20:49:46.948Z,16.35
2022-11-27T20:52:14.651Z,18.48
2022-11-27T20:54:41.801Z,7.25
2022-11-27T20:57:14.201Z,9.18
2022-11-27T20:59:42.020Z,14.23
2022-11-27T21:02:12.481Z,8.10
2022-11-27T21:04:39.807Z,8.52
2022-11-27T21:07:06.972Z,11.13
2022-11-27T21:09:34.750Z,3.08
2022-11-27T21:12:03.502Z,7.00
2022-11-27T21:14:30.730Z,9.43
2022-11-27T21:17:04.538Z,3.95
2022-11-27T21:19:32.807Z,7.28
2022-11-27T21:21:59.914Z,4.20
2022-11-27T21:24:28.622Z,9.13
2022-11-27T21:26:56.151Z,4.97
2022-11-27T21:29:25.445Z,9.90
2022-11-27T21:31:53.964Z,5.22
2022-11-27T21:34:21.508Z,10.18
2022-11-27T21:36:49.364Z,3.80
2022-11-27T21:39:25.488Z,4.95
2022-11-27T21:41:54.689Z,7.05
2022-11-27T21:44:22.794Z,5.65
2022-11-27T21:46:50.021Z,1.92
2022-11-27T21:49:19.296Z,3.97
2022-11-27T21:51:46.388Z,4.45
2022-11-27T21:54:14.851Z,2.40
2022-11-27T21:56:41.966Z,7.15
2022-11-27T21:59:10.862Z,5.78
2022-11-27T22:01:38.143Z,6.13
2022-11-27T22:04:05.198Z,7.07
2022-11-27T22:06:36.616Z,7.38
2022-11-27T22:09:03.765Z,4.00
2022-11-27T22:11:30.837Z,6.03
2022-11-27T22:13:58.932Z,6.18
2022-11-27T22:16:28.024Z,7.60
2022-11-27T22:18:56.275Z,9.23
2022-11-27T22:21:23.589Z,5.43
2022-11-27T22:23:50.856Z,2.65
2022-11-27T22:26:20.008Z,6.65
2022-11-27T22:28:47.910Z,8.02
2022-11-27T22:31:24.264Z,7.35
2022-11-27T22:33:51.726Z,10.50
2022-11-27T22:36:43.252Z,7.50
2022-11-27T22:42:24.715Z,7.95
2022-11-27T22:44:52.873Z,5.15
2022-11-27T22:47:23.843Z,7.03
2022-11-27T22:49:55.031Z,8.10
2022-11-27T22:52:29.791Z,7.97
2022-11-27T22:55:12.466Z,18.92
2022-11-27T22:57:39.984Z,6.35
2022-11-27T23:00:07.767Z,19.58
2022-11-27T23:02:38.840Z,8.35
2022-11-27T23:05:10.188Z,7.97
2022-11-27T23:07:37.469Z,10.15
2022-11-27T23:10:04.808Z,14.40
2022-11-27T23:12:31.994Z,17.63
2022-11-27T23:14:59.058Z,23.92
2022-11-27T23:17:26.093Z,12.35
2022-11-27T23:19:53.180Z,18.67
2022-11-27T23:22:20.111Z,14.80
2022-11-27T23:24:47.834Z,20.75
2022-11-27T23:27:14.838Z,21.77
2022-11-27T23:29:41.935Z,17.40
2022-11-27T23:32:08.884Z,16.77
2022-11-27T23:34:36.092Z,12.80
2022-11-27T23:37:02.960Z,20.10
2022-11-27T23:39:30.288Z,11.57
2022-11-27T23:41:57.178Z,15.25
2022-11-27T23:44:24.180Z,10.38
2022-11-27T23:46:51.125Z,14.30
2022-11-27T23:49:18.965Z,15.73
2022-11-27T23:51:45.902Z,11.38
2022-11-27T23:54:13.124Z,9.77
2022-11-27T23:56:40.808Z,12.45
2022-11-27T23:59:07.928Z,17.50
